Terminal Aerodrome Forecast
Issued by NWS Cleveland, OH

Home | Current Version | Previous Version | Text Only | Print | Product List | Glossary Off
Versions: 1 2 3 4 5 6 7 8 9 10 11 12 13 14 15 16 17 18 19

000
FTUS41 KCLE 071700
TAFTOL
TAF
KTOL 071732Z 0718/0818 24015G25KT P6SM VCSH BKN020 OVC035
     FM072200 26012KT P6SM SCT045 BKN250
     FM080200 24005KT P6SM SCT040 BKN250
     FM080800 22005KT 4SM BR SCT040 BKN150
     FM081200 20010KT P6SM VCSH BKN040 OVC100
      TEMPO 0814/0818 5SM -TSRA BR SCT019 BKN040CB OVC080=

USA.gov is the U.S. government's official web portal to all federal, state and local government web resources and services.